Time;durP1;ratioP1;P1;durP2;ratioP2;P2;SDS_P1;SDS_P2;PMS_P1;PMS_P2;Temp;Humidity;BMP_temperature;BMP_pressure;BME280_temperature;BME280_humidity;BME280_pressure;Samples;Min_cycle;Max_cycle;Signal;HPM_P1;HPM_P2
2021/05/21 00:00:49;;;;;;;2.88;0.60;;;;;;;18.39;31.08;100709.56;5014113;28;20045;-63
2021/05/21 00:03:16;;;;;;;1.20;0.70;;;;;;;18.41;30.89;100717.34;5013613;28;20453;-63
2021/05/21 00:05:43;;;;;;;0.60;0.60;;;;;;;18.42;30.81;100716.38;5013761;28;20072;-64
2021/05/21 00:08:11;;;;;;;2.28;0.70;;;;;;;18.42;30.78;100719.84;5013943;28;20436;-64
2021/05/21 00:10:38;;;;;;;0.73;0.52;;;;;;;18.41;30.39;100718.19;5014230;28;20461;-64
2021/05/21 00:13:05;;;;;;;1.05;0.95;;;;;;;18.38;30.44;100714.94;5013320;28;20037;-64
2021/05/21 00:15:32;;;;;;;1.35;0.73;;;;;;;18.39;30.13;100708.72;5013442;28;20584;-64
2021/05/21 00:17:59;;;;;;;0.75;0.70;;;;;;;18.39;30.23;100709.56;5013865;28;20507;-64
2021/05/21 00:20:26;;;;;;;1.33;0.60;;;;;;;18.37;30.07;100707.97;5008945;28;20041;-64
2021/05/21 00:22:52;;;;;;;0.73;0.70;;;;;;;18.36;30.21;100708.94;4990408;28;20069;-64
2021/05/21 00:25:19;;;;;;;1.13;0.90;;;;;;;18.32;30.29;100710.94;5008259;28;20717;-64
2021/05/21 00:27:46;;;;;;;2.55;0.55;;;;;;;18.30;30.28;100707.59;5007026;28;20061;-63
2021/05/21 00:30:14;;;;;;;1.08;0.70;;;;;;;18.27;30.06;100713.97;4990243;28;20046;-64
2021/05/21 00:32:40;;;;;;;0.90;0.70;;;;;;;18.28;29.61;100710.34;4989837;28;20092;-64
2021/05/21 00:35:08;;;;;;;3.10;0.70;;;;;;;18.25;29.72;100715.84;5006608;28;20577;-63
2021/05/21 00:37:35;;;;;;;0.60;0.50;;;;;;;18.24;29.30;100708.91;5006952;28;20117;-63
2021/05/21 00:40:03;;;;;;;0.65;0.52;;;;;;;18.23;29.01;100709.84;5007540;28;20073;-63
2021/05/21 00:42:30;;;;;;;1.83;0.93;;;;;;;18.20;28.91;100718.00;5007599;28;20085;-66
2021/05/21 00:44:58;;;;;;;2.47;0.88;;;;;;;18.18;28.59;100719.91;5006403;28;20046;-65
2021/05/21 00:47:27;;;;;;;3.50;1.30;;;;;;;17.92;30.08;100713.91;5006564;28;20126;-66
2021/05/21 00:49:55;;;;;;;1.75;0.60;;;;;;;17.94;31.05;100721.72;5006664;28;20214;-65
2021/05/21 00:52:23;;;;;;;1.20;0.70;;;;;;;17.90;32.13;100718.47;5006814;28;20052;-66
2021/05/21 00:54:51;;;;;;;1.67;0.80;;;;;;;17.79;33.23;100723.69;5005843;28;20046;-66
2021/05/21 00:57:18;;;;;;;0.85;0.70;;;;;;;17.66;34.02;100718.41;5006722;28;20084;-66
2021/05/21 00:59:45;;;;;;;0.85;0.80;;;;;;;17.36;34.48;100720.59;5006299;28;20084;-66
2021/05/21 01:02:13;;;;;;;1.15;0.93;;;;;;;17.46;34.48;100719.81;5005190;28;20065;-66
2021/05/21 01:04:41;;;;;;;6.40;1.52;;;;;;;17.42;34.20;100720.19;5004347;28;20503;-66
2021/05/21 01:07:08;;;;;;;4.22;0.80;;;;;;;17.27;34.03;100717.66;5004167;28;20149;-66
2021/05/21 01:09:35;;;;;;;1.02;0.50;;;;;;;17.39;31.70;100712.47;5006663;28;20073;-66
2021/05/21 01:12:02;;;;;;;0.85;0.60;;;;;;;17.43;32.03;100700.78;5006124;28;20112;-66
2021/05/21 01:14:29;;;;;;;2.28;0.57;;;;;;;17.39;32.15;100694.03;5005534;28;20046;-66
2021/05/21 01:16:56;;;;;;;0.70;0.60;;;;;;;17.53;31.47;100693.91;5006723;28;20042;-66
2021/05/21 01:19:23;;;;;;;0.75;0.60;;;;;;;17.58;30.92;100696.19;5006443;28;20393;-66
2021/05/21 01:21:50;;;;;;;3.10;0.60;;;;;;;17.50;31.21;100694.09;5005727;28;20436;-66
2021/05/21 01:24:18;;;;;;;0.68;0.68;;;;;;;17.57;31.34;100695.34;5006983;28;20049;-66
2021/05/21 01:26:47;;;;;;;0.93;0.73;;;;;;;17.52;31.38;100692.19;5007186;28;20500;-66
2021/05/21 01:29:14;;;;;;;0.75;0.55;;;;;;;17.35;30.99;100687.28;5007196;28;20088;-64
2021/05/21 01:31:43;;;;;;;1.13;0.70;;;;;;;17.46;30.66;100676.81;5007263;28;20104;-64
2021/05/21 01:34:11;;;;;;;0.60;0.50;;;;;;;17.51;31.24;100669.44;5006701;28;20400;-65
2021/05/21 01:36:38;;;;;;;0.77;0.77;;;;;;;17.57;30.19;100674.25;5005161;28;20069;-65
2021/05/21 01:39:10;;;;;;;0.40;0.40;;;;;;;17.60;29.41;100674.03;5005444;28;20069;-65
2021/05/21 01:41:38;;;;;;;0.93;0.60;;;;;;;17.63;29.11;100662.41;5006030;28;20041;-65
2021/05/21 01:44:07;;;;;;;1.98;0.60;;;;;;;17.67;29.02;100667.34;5006178;28;20041;-65
2021/05/21 01:46:34;;;;;;;2.45;0.55;;;;;;;17.69;28.78;100665.47;5006326;28;20052;-65
2021/05/21 01:49:02;;;;;;;0.60;0.50;;;;;;;17.74;28.78;100658.09;5005220;28;20492;-65
2021/05/21 01:51:29;;;;;;;1.48;1.05;;;;;;;17.74;28.58;100658.09;5004282;28;20492;-65
2021/05/21 01:54:16;;;;;;;0.50;0.50;;;;;;;17.73;28.56;100650.28;5004840;28;20054;-65
2021/05/21 01:56:47;;;;;;;2.08;1.05;;;;;;;17.78;28.29;100654.25;5004966;28;20037;-65
2021/05/21 01:59:14;;;;;;;0.65;0.50;;;;;;;17.78;28.20;100651.63;5004197;28;20045;-65
2021/05/21 02:01:41;;;;;;;2.95;0.70;;;;;;;17.82;27.84;100654.88;5004794;28;20131;-65
2021/05/21 02:04:08;;;;;;;0.70;0.50;;;;;;;17.82;28.04;100659.31;5004666;28;20074;-64
2021/05/21 02:06:37;;;;;;;1.48;0.60;;;;;;;17.76;28.11;100650.91;5004451;28;20042;-65
2021/05/21 02:09:08;;;;;;;1.30;0.75;;;;;;;17.62;30.02;100643.13;5004590;28;20061;-65
2021/05/21 02:11:36;;;;;;;2.28;0.70;;;;;;;17.53;30.53;100649.94;5007743;28;20042;-64
2021/05/21 02:14:04;;;;;;;1.08;0.80;;;;;;;17.43;30.72;100648.06;5007739;28;20038;-64
2021/05/21 02:16:31;;;;;;;0.95;0.80;;;;;;;17.48;30.57;100654.69;5007575;28;20046;-64
2021/05/21 02:18:58;;;;;;;1.10;0.73;;;;;;;17.52;30.26;100645.63;5009424;28;20046;-64
2021/05/21 02:21:31;;;;;;;0.98;0.60;;;;;;;17.29;30.81;100647.25;5009494;28;20042;-65
2021/05/21 02:24:00;;;;;;;3.40;0.50;;;;;;;17.38;30.78;100644.94;5007958;28;20400;-65
2021/05/21 02:26:27;;;;;;;2.80;0.90;;;;;;;17.46;30.79;100650.47;5007617;28;20048;-65
2021/05/21 02:28:54;;;;;;;4.78;1.67;;;;;;;17.32;31.31;100651.47;5007816;28;20435;-65
2021/05/21 02:31:22;;;;;;;3.45;1.00;;;;;;;17.32;31.51;100650.63;5007753;28;20485;-65
2021/05/21 02:33:49;;;;;;;0.85;0.85;;;;;;;17.33;31.55;100657.59;5008400;28;20034;-65
2021/05/21 02:36:16;;;;;;;0.50;0.50;;;;;;;17.17;31.39;100653.41;5008652;28;20078;-65
2021/05/21 02:38:43;;;;;;;0.90;0.60;;;;;;;17.13;31.51;100656.38;4983828;28;703410;-64
2021/05/21 02:41:10;;;;;;;2.70;0.80;;;;;;;17.02;31.63;100650.06;5008766;28;20073;-64
2021/05/21 02:43:37;;;;;;;2.38;0.98;;;;;;;16.86;32.61;100653.88;5008861;28;20050;-65
2021/05/21 02:46:03;;;;;;;1.63;0.95;;;;;;;16.94;33.11;100654.19;5008465;28;20802;-64
2021/05/21 02:48:30;;;;;;;1.92;0.88;;;;;;;16.88;33.37;100657.22;5008550;28;20065;-65
2021/05/21 02:50:57;;;;;;;1.77;1.02;;;;;;;16.87;33.27;100655.56;5008770;28;20049;-64
2021/05/21 02:53:24;;;;;;;1.77;0.88;;;;;;;16.81;33.79;100658.63;5009144;28;20397;-64
2021/05/21 02:55:51;;;;;;;0.70;0.70;;;;;;;16.66;33.51;100652.59;5008239;28;20132;-64
2021/05/21 02:58:19;;;;;;;4.22;0.80;;;;;;;16.59;33.44;100652.16;5008523;28;20033;-65
2021/05/21 03:00:47;;;;;;;1.50;0.70;;;;;;;16.66;32.63;100653.41;5008840;28;20073;-65
2021/05/21 03:03:14;;;;;;;0.88;0.82;;;;;;;16.66;32.88;100653.41;5008349;28;20124;-66
2021/05/21 03:05:41;;;;;;;0.98;0.80;;;;;;;16.67;32.69;100655.13;5008542;28;20084;-66
2021/05/21 03:08:08;;;;;;;0.85;0.68;;;;;;;16.52;32.57;100650.91;5008277;28;20488;-66
2021/05/21 03:10:35;;;;;;;0.82;0.70;;;;;;;16.70;32.96;100654.91;5008989;28;20041;-66
2021/05/21 03:13:02;;;;;;;2.45;0.77;;;;;;;16.74;33.00;100656.41;5008358;28;20038;-66
2021/05/21 03:15:29;;;;;;;0.80;0.70;;;;;;;16.77;32.58;100658.81;5009938;28;20050;-66
2021/05/21 03:17:59;;;;;;;0.60;0.60;;;;;;;16.77;33.25;100655.34;5008974;28;20592;-66
2021/05/21 03:20:26;;;;;;;0.47;0.47;;;;;;;16.72;33.16;100650.44;5009513;28;20401;-66
2021/05/21 03:22:53;;;;;;;1.10;1.00;;;;;;;16.66;33.19;100653.41;5009036;28;20061;-66
2021/05/21 03:25:20;;;;;;;1.38;0.98;;;;;;;16.59;33.95;100657.44;5008571;28;20041;-66
2021/05/21 03:27:47;;;;;;;1.85;0.65;;;;;;;16.69;33.42;100658.50;5008043;28;20522;-65
2021/05/21 03:30:15;;;;;;;1.45;0.90;;;;;;;16.61;33.33;100666.06;5008783;28;20603;-65
2021/05/21 03:32:42;;;;;;;2.35;1.20;;;;;;;16.64;33.69;100671.13;5008429;28;20046;-66
2021/05/21 03:35:11;;;;;;;3.10;1.33;;;;;;;16.61;34.13;100666.06;5007846;28;20065;-64
2021/05/21 03:37:38;;;;;;;3.88;1.00;;;;;;;16.57;34.25;100677.75;5007854;28;20096;-64
2021/05/21 03:40:06;;;;;;;1.38;1.27;;;;;;;16.55;34.65;100684.06;5003887;28;20132;-64
2021/05/21 03:42:33;;;;;;;2.15;1.30;;;;;;;16.55;34.69;100677.00;5007535;28;20046;-65
2021/05/21 03:45:00;;;;;;;3.67;1.60;;;;;;;16.61;34.48;100673.94;4990386;28;20390;-64
2021/05/21 03:47:27;;;;;;;2.40;0.85;;;;;;;16.55;35.00;100677.00;5007391;28;20674;-64
2021/05/21 03:49:54;;;;;;;4.65;1.00;;;;;;;16.47;35.08;100679.34;5007986;28;20073;-66
2021/05/21 03:52:21;;;;;;;3.00;1.45;;;;;;;16.46;35.17;100682.91;5007816;28;20100;-66
2021/05/21 03:54:48;;;;;;;4.68;1.08;;;;;;;16.50;35.88;100684.38;5007219;28;20488;-65
2021/05/21 03:57:15;;;;;;;5.45;1.30;;;;;;;16.39;35.91;100676.34;4990410;28;20088;-65
2021/05/21 03:59:42;;;;;;;4.63;1.67;;;;;;;16.27;36.02;100667.50;5005630;28;20584;-64
2021/05/21 04:02:11;;;;;;;5.50;1.77;;;;;;;16.16;36.90;100675.28;5007460;28;20052;-64
2021/05/21 04:04:38;;;;;;;2.95;1.55;;;;;;;16.15;36.79;100674.44;5005604;28;20046;-65
2021/05/21 04:07:06;;;;;;;4.10;1.20;;;;;;;16.03;37.17;100679.66;5007805;28;20049;-65
2021/05/21 04:09:33;;;;;;;2.42;1.42;;;;;;;16.28;36.57;100689.41;5007496;28;20562;-65
2021/05/21 04:12:00;;;;;;;2.47;1.30;;;;;;;16.29;36.87;100689.28;5006204;28;20064;-65
2021/05/21 04:14:27;;;;;;;2.75;1.10;;;;;;;16.24;37.13;100694.88;5006697;28;20176;-65
2021/05/21 04:16:54;;;;;;;3.85;1.30;;;;;;;16.17;36.98;100688.31;5006962;28;20065;-65
2021/05/21 04:19:21;;;;;;;0.75;0.75;;;;;;;16.15;37.65;100682.31;5006339;28;20034;-65
2021/05/21 04:21:49;;;;;;;1.30;0.93;;;;;;;16.14;36.87;100678.03;5007172;28;20041;-64
2021/05/21 04:24:16;;;;;;;1.60;0.95;;;;;;;16.06;37.31;100677.66;5007087;28;20381;-64
2021/05/21 04:26:43;;;;;;;5.15;1.02;;;;;;;16.08;37.90;100686.28;5007267;28;20392;-64
2021/05/21 04:29:14;;;;;;;11.80;1.83;;;;;;;16.01;37.33;100685.00;5007420;28;20128;-64
2021/05/21 04:31:41;;;;;;;3.40;0.90;;;;;;;16.15;37.48;100684.97;4990048;28;20034;-64
2021/05/21 04:34:08;;;;;;;3.22;0.90;;;;;;;16.13;38.13;100680.72;5006459;28;20116;-64
2021/05/21 04:36:35;;;;;;;2.33;1.13;;;;;;;16.12;38.24;100694.81;5010874;28;20568;-64
2021/05/21 04:39:04;;;;;;;2.45;1.40;;;;;;;16.01;38.24;100677.13;5012248;28;20500;-65
2021/05/21 04:41:31;;;;;;;1.20;1.10;;;;;;;16.10;38.65;100691.47;5012858;28;20412;-64
2021/05/21 04:43:58;;;;;;;2.45;1.40;;;;;;;16.09;38.79;100674.84;5011539;28;20069;-64
2021/05/21 04:46:25;;;;;;;1.80;1.00;;;;;;;16.19;38.51;100675.94;5011409;28;20500;-64
2021/05/21 04:48:52;;;;;;;2.10;0.70;;;;;;;15.88;38.72;100681.50;5013391;28;20069;-64
2021/05/21 04:51:19;;;;;;;1.48;0.85;;;;;;;16.23;38.36;100682.66;5012745;28;20042;-64
2021/05/21 04:53:46;;;;;;;3.25;0.85;;;;;;;16.57;38.12;100685.66;5019236;28;20554;-64
2021/05/21 04:56:15;;;;;;;6.15;1.00;;;;;;;16.90;38.17;100686.94;5016179;28;20584;-65
2021/05/21 04:58:43;;;;;;;2.90;0.70;;;;;;;17.28;37.28;100687.72;5012541;28;20046;-63
2021/05/21 05:01:10;;;;;;;6.30;1.73;;;;;;;17.61;36.58;100693.34;5012256;28;20058;-63
2021/05/21 05:03:37;;;;;;;1.77;0.90;;;;;;;17.91;36.11;100687.66;5011136;28;20045;-63
2021/05/21 05:06:04;;;;;;;3.92;1.33;;;;;;;18.18;34.70;100692.69;5012504;28;20050;-64
2021/05/21 05:08:31;;;;;;;4.32;2.20;;;;;;;18.10;34.23;100689.75;5012495;28;20030;-64
2021/05/21 05:10:58;;;;;;;4.75;1.75;;;;;;;18.63;33.03;100675.16;5012964;28;20092;-64
2021/05/21 05:13:25;;;;;;;3.33;1.38;;;;;;;18.53;34.15;100669.72;5012022;28;20100;-64
2021/05/21 05:15:52;;;;;;;10.15;1.77;;;;;;;18.55;34.78;100670.47;5011542;28;20496;-65
2021/05/21 05:18:19;;;;;;;7.40;1.40;;;;;;;18.52;36.21;100669.84;5012359;28;20555;-65
2021/05/21 05:20:47;;;;;;;5.63;2.22;;;;;;;18.22;38.00;100665.97;5013071;28;20432;-64
2021/05/21 05:23:14;;;;;;;2.58;1.10;;;;;;;18.08;37.73;100668.78;5011813;28;20041;-64
2021/05/21 05:25:42;;;;;;;6.25;1.77;;;;;;;17.92;35.22;100665.59;5012799;28;20092;-63
2021/05/21 05:28:12;;;;;;;8.40;1.27;;;;;;;18.26;34.59;100674.47;5012813;28;20049;-65
2021/05/21 05:30:39;;;;;;;5.18;2.75;;;;;;;18.47;34.56;100677.28;5012675;28;20042;-75
2021/05/21 05:33:06;;;;;;;5.15;2.00;;;;;;;18.12;35.78;100667.59;5010215;28;20037;-76
2021/05/21 05:35:34;;;;;;;4.80;2.30;;;;;;;18.14;37.29;100665.69;5011703;28;20065;-76
2021/05/21 05:38:00;;;;;;;8.18;2.08;;;;;;;17.88;39.37;100672.88;5012479;28;20042;-74
2021/05/21 05:40:28;;;;;;;4.55;1.95;;;;;;;17.82;39.64;100672.50;5010630;28;20362;-74
2021/05/21 05:42:55;;;;;;;5.78;1.85;;;;;;;18.00;39.61;100673.78;5012601;28;20042;-78
2021/05/21 05:45:22;;;;;;;6.32;2.75;;;;;;;17.93;40.92;100673.38;5011717;28;20129;-77
2021/05/21 05:47:49;;;;;;;4.40;2.10;;;;;;;17.82;42.08;100673.34;4990814;28;20125;-62
2021/05/21 05:50:16;;;;;;;5.50;2.22;;;;;;;17.79;42.07;100671.78;5002949;28;20049;-62
2021/05/21 05:52:42;;;;;;;6.80;2.00;;;;;;;17.61;43.33;100672.25;5011889;28;20121;-64
2021/05/21 05:55:10;;;;;;;8.23;2.22;;;;;;;17.69;43.17;100675.19;5012129;28;20055;-63
2021/05/21 05:57:44;;;;;;;5.82;1.98;;;;;;;17.77;42.99;100673.69;5012731;28;20050;-63
2021/05/21 06:00:12;;;;;;;13.27;2.22;;;;;;;17.74;42.51;100658.09;5011518;28;20049;-64
2021/05/21 06:02:39;;;;;;;12.30;2.38;;;;;;;17.62;43.30;100643.13;5012197;28;20068;-65
2021/05/21 06:05:07;;;;;;;3.65;2.03;;;;;;;17.51;42.54;100643.91;5012046;28;20405;-64
2021/05/21 06:07:33;;;;;;;13.73;3.17;;;;;;;17.42;42.55;100657.78;5012107;28;20050;-65
2021/05/21 06:10:00;;;;;;;12.23;2.67;;;;;;;17.73;42.08;100668.72;5011063;28;20058;-65
2021/05/21 06:12:27;;;;;;;3.58;1.77;;;;;;;17.75;42.76;100675.59;5012391;28;20542;-65
2021/05/21 06:14:56;;;;;;;8.40;2.20;;;;;;;17.57;43.93;100681.31;5011844;28;20088;-62
2021/05/21 06:17:23;;;;;;;10.15;2.63;;;;;;;17.62;44.14;100679.19;5011877;28;20038;-62
2021/05/21 06:19:50;;;;;;;5.57;2.00;;;;;;;17.53;45.86;100680.72;5012186;28;20041;-64
2021/05/21 06:22:17;;;;;;;13.27;2.70;;;;;;;17.53;45.92;100693.91;5009066;28;20087;-65
2021/05/21 06:24:48;;;;;;;7.53;2.20;;;;;;;17.64;45.68;100695.75;5010777;28;20507;-65
2021/05/21 06:27:15;;;;;;;11.00;2.25;;;;;;;17.80;44.87;100694.56;5012097;28;20104;-64
2021/05/21 06:29:42;;;;;;;12.25;3.50;;;;;;;17.65;44.89;100693.00;5011777;28;20156;-65
2021/05/21 06:32:09;;;;;;;8.98;2.45;;;;;;;17.64;45.28;100699.25;5012198;28;20046;-65
2021/05/21 06:34:36;;;;;;;7.55;3.00;;;;;;;17.86;45.46;100700.34;5011150;28;20076;-63
2021/05/21 06:37:03;;;;;;;13.48;3.15;;;;;;;17.85;45.02;100696.03;5011348;28;20073;-65
2021/05/21 06:39:30;;;;;;;7.70;2.85;;;;;;;18.10;44.65;100702.97;5012315;28;20061;-66
2021/05/21 06:41:57;;;;;;;7.07;2.40;;;;;;;18.22;43.86;100705.53;5012137;28;20045;-64
2021/05/21 06:44:24;;;;;;;7.70;2.08;;;;;;;18.40;43.30;100699.84;5011635;28;20065;-65
2021/05/21 06:46:51;;;;;;;8.77;2.15;;;;;;;18.54;43.37;100699.63;5011557;28;20042;-62
2021/05/21 06:49:18;;;;;;;9.23;2.05;;;;;;;18.67;42.21;100695.09;5012092;28;20429;-59
2021/05/21 06:51:45;;;;;;;10.52;1.88;;;;;;;18.40;41.44;100703.31;5012466;28;20120;-60
2021/05/21 06:54:13;;;;;;;6.32;1.77;;;;;;;18.80;39.87;100692.38;5011616;28;20074;-60
2021/05/21 06:56:40;;;;;;;2.30;1.55;;;;;;;18.97;38.04;100691.06;5012180;28;20061;-61
2021/05/21 06:59:07;;;;;;;2.15;1.60;;;;;;;19.17;37.21;100692.97;5015391;28;20456;-60
2021/05/21 07:01:34;;;;;;;6.97;1.83;;;;;;;19.34;37.78;100689.03;5015608;28;20081;-60
2021/05/21 07:04:01;;;;;;;6.32;1.88;;;;;;;19.49;37.57;100681.63;4994933;28;20049;-63
2021/05/21 07:06:28;;;;;;;6.80;1.77;;;;;;;19.59;37.48;100679.97;5009896;28;20037;-61
2021/05/21 07:08:55;;;;;;;8.52;1.85;;;;;;;19.60;38.37;100679.00;5011494;28;20068;-59
2021/05/21 07:11:22;;;;;;;11.15;2.65;;;;;;;19.38;38.91;100677.22;5015411;28;20125;-61
2021/05/21 07:13:48;;;;;;;5.68;1.85;;;;;;;19.36;39.48;100672.06;5015416;28;20042;-63
2021/05/21 07:16:15;;;;;;;7.38;1.88;;;;;;;19.42;39.20;100661.97;5013268;28;20184;-61
2021/05/21 07:18:42;;;;;;;10.25;2.40;;;;;;;19.26;39.06;100649.97;5015395;28;20129;-59
2021/05/21 07:21:09;;;;;;;11.93;2.38;;;;;;;19.44;39.38;100657.38;5013541;28;20077;-62
2021/05/21 07:23:36;;;;;;;8.80;3.10;;;;;;;19.44;40.18;100660.03;5014509;28;20048;-61
2021/05/21 07:26:03;;;;;;;8.15;2.60;;;;;;;19.36;40.52;100661.50;5009798;28;20041;-62
2021/05/21 07:28:30;;;;;;;11.95;3.17;;;;;;;19.16;41.99;100666.69;5004996;28;20037;-62
2021/05/21 07:30:57;;;;;;;13.95;3.38;;;;;;;19.18;40.56;100662.97;5006287;28;20037;-63
2021/05/21 07:33:24;;;;;;;23.75;4.13;;;;;;;19.15;42.30;100673.75;5009055;28;20061;-62
2021/05/21 07:35:52;;;;;;;17.02;3.55;;;;;;;19.37;42.34;100668.44;4987281;28;20038;-62
2021/05/21 07:38:19;;;;;;;29.95;4.55;;;;;;;19.26;43.10;100676.41;5005537;28;20121;-60
2021/05/21 07:40:45;;;;;;;27.00;4.68;;;;;;;19.47;41.60;100683.56;5005771;28;20073;-59
2021/05/21 07:43:12;;;;;;;25.92;4.18;;;;;;;19.72;41.06;100680.66;4976269;28;20129;-59
2021/05/21 07:45:39;;;;;;;10.20;2.72;;;;;;;19.93;40.34;100690.47;5005651;28;20562;-60
2021/05/21 07:48:06;;;;;;;10.40;1.65;;;;;;;19.95;38.25;100683.22;5006148;28;20038;-60
2021/05/21 07:50:38;;;;;;;14.48;2.20;;;;;;;20.02;38.44;100676.47;5006647;28;20060;-60
2021/05/21 07:53:06;;;;;;;49.88;4.18;;;;;;;19.91;37.67;100673.88;5005076;28;20042;-59
2021/05/21 07:55:34;;;;;;;24.40;3.88;;;;;;;19.93;37.78;100651.63;5009291;28;20050;-60
2021/05/21 07:58:02;;;;;;;25.15;3.53;;;;;;;19.88;38.78;100651.16;5008161;28;20104;-62
2021/05/21 08:00:29;;;;;;;11.98;2.30;;;;;;;20.12;38.80;100646.47;5006361;28;20046;-63
2021/05/21 08:02:56;;;;;;;13.10;2.78;;;;;;;20.23;38.79;100634.13;5006078;28;20038;-61
2021/05/21 08:05:23;;;;;;;20.13;3.33;;;;;;;20.45;38.29;100627.84;5004477;28;20042;-62
2021/05/21 08:07:50;;;;;;;5.68;2.08;;;;;;;20.76;34.59;100626.94;5004590;28;20093;-62
2021/05/21 08:10:17;;;;;;;3.33;1.38;;;;;;;21.13;32.22;100632.50;5003729;28;20084;-60
2021/05/21 08:12:44;;;;;;;2.42;0.95;;;;;;;21.64;30.90;100633.34;5005918;28;20041;-60
2021/05/21 08:15:12;;;;;;;6.00;1.00;;;;;;;21.76;29.28;100631.38;5005591;28;20046;-62
2021/05/21 08:17:39;;;;;;;1.20;1.10;;;;;;;22.23;27.03;100637.66;5005691;28;20044;-60
2021/05/21 08:20:11;;;;;;;17.10;1.92;;;;;;;22.29;26.37;100641.56;5005214;28;20042;-60
2021/05/21 08:22:38;;;;;;;5.20;1.48;;;;;;;22.37;27.38;100642.53;5005830;28;20042;-62
2021/05/21 08:25:06;;;;;;;4.47;1.40;;;;;;;22.59;26.55;100624.59;5005195;28;20041;-62
2021/05/21 08:27:33;;;;;;;5.72;1.50;;;;;;;22.61;27.12;100622.63;5005480;28;20072;-62
2021/05/21 08:30:00;;;;;;;13.07;1.48;;;;;;;22.88;26.17;100621.84;5005136;28;20073;-62
2021/05/21 08:32:27;;;;;;;7.47;1.80;;;;;;;22.65;26.99;100624.84;5004932;28;20038;-61
2021/05/21 08:34:54;;;;;;;12.02;2.28;;;;;;;23.49;26.97;100624.72;5004987;28;20034;-61
2021/05/21 08:37:21;;;;;;;4.47;1.30;;;;;;;23.43;25.50;100627.94;5005440;28;20050;-62
2021/05/21 08:39:49;;;;;;;7.72;1.33;;;;;;;23.09;22.59;100613.63;5006336;28;20057;-62
2021/05/21 08:42:16;;;;;;;8.77;1.00;;;;;;;23.38;22.28;100616.91;5006757;28;20125;-80
2021/05/21 08:44:49;;;;;;;8.20;1.40;;;;;;;23.29;22.00;100617.00;5005485;28;20042;-77
2021/05/21 08:47:16;;;;;;;8.30;1.00;;;;;;;23.62;22.59;100615.50;5004744;28;20041;-76
2021/05/21 08:49:44;;;;;;;7.25;1.00;;;;;;;23.46;22.24;100598.41;5010148;28;20046;-61
2021/05/21 08:52:11;;;;;;;7.30;0.88;;;;;;;23.78;22.92;100587.25;5012504;28;20042;-60
2021/05/21 08:54:38;;;;;;;8.05;2.03;;;;;;;23.65;22.38;100593.94;5009422;28;20285;-61
2021/05/21 08:57:11;;;;;;;8.60;1.30;;;;;;;23.40;23.35;100590.19;5011559;28;20493;-63
2021/05/21 08:59:38;;;;;;;5.10;0.95;;;;;;;23.37;22.25;100587.81;5012696;28;20484;-61
2021/05/21 09:02:06;;;;;;;3.60;1.52;;;;;;;23.18;22.37;100599.44;5012558;28;20033;-62
2021/05/21 09:04:57;;;;;;;0.68;0.47;;;;;;;23.08;22.46;100593.34;5011639;28;20041;-60
2021/05/21 09:07:29;;;;;;;2.35;0.60;;;;;;;23.16;23.03;100606.72;5008882;28;20042;-61
2021/05/21 09:09:58;;;;;;;4.32;1.02;;;;;;;23.26;22.82;100623.44;5003569;28;20389;-59
2021/05/21 09:12:43;;;;;;;7.55;1.25;;;;;;;23.30;22.72;100630.16;5004375;28;20121;-62
2021/05/21 09:15:24;;;;;;;5.47;1.15;;;;;;;23.32;22.54;100625.50;5004434;28;20294;-62
2021/05/21 09:17:57;;;;;;;3.90;0.85;;;;;;;22.95;22.00;100615.78;5003985;28;20092;-62
2021/05/21 09:20:39;;;;;;;14.10;1.92;;;;;;;23.10;23.03;100624.09;5004102;28;20321;-62
2021/05/21 09:23:17;;;;;;;0.73;0.50;;;;;;;22.84;22.25;100615.94;5004877;28;20042;-61
2021/05/21 09:25:47;;;;;;;2.17;0.75;;;;;;;22.92;22.96;100609.94;5004807;28;20038;-61
2021/05/21 09:28:37;;;;;;;7.35;0.90;;;;;;;22.93;23.45;100601.81;5005887;28;20092;-62
2021/05/21 09:31:19;;;;;;;4.63;0.90;;;;;;;22.95;23.45;100604.31;5000691;28;20037;-61
2021/05/21 09:33:49;;;;;;;3.78;0.90;;;;;;;22.70;23.71;100600.50;5004379;28;20464;-60
2021/05/21 09:36:31;;;;;;;4.40;1.95;;;;;;;22.52;23.80;100588.94;5005910;28;20050;-60
2021/05/21 09:38:59;;;;;;;1.40;0.65;;;;;;;22.48;24.25;100575.97;5004036;28;20496;-61
2021/05/21 09:41:49;;;;;;;2.35;0.77;;;;;;;22.55;24.33;100575.38;5004872;28;20034;-61
2021/05/21 09:44:17;;;;;;;2.38;1.00;;;;;;;22.59;25.22;100574.94;5006538;28;20495;-61
2021/05/21 09:46:50;;;;;;;1.77;0.82;;;;;;;22.47;24.91;100584.88;5003528;28;20041;-61
2021/05/21 09:49:27;;;;;;;1.98;0.80;;;;;;;22.34;23.92;100583.56;5004701;28;20439;-62
2021/05/21 09:51:57;;;;;;;7.68;1.05;;;;;;;22.51;24.94;100574.81;5004511;28;20070;-60
2021/05/21 09:54:26;;;;;;;2.17;1.10;;;;;;;22.64;24.76;100570.03;5004280;28;20041;-60
2021/05/21 09:57:05;;;;;;;0.82;0.60;;;;;;;22.75;24.47;100564.53;5002900;28;20042;-61
2021/05/21 09:59:38;;;;;;;6.40;0.70;;;;;;;22.76;23.87;100568.00;5004723;28;20052;-61
2021/05/21 10:02:27;;;;;;;2.85;0.60;;;;;;;22.79;24.14;100557.06;4991775;28;20076;-61
2021/05/21 10:04:55;;;;;;;4.97;1.00;;;;;;;22.84;23.60;100561.94;5001146;28;20269;-62
2021/05/21 10:07:23;;;;;;;6.13;1.40;;;;;;;22.82;23.80;100566.59;5002052;28;20057;-62
2021/05/21 10:09:50;;;;;;;1.25;0.60;;;;;;;22.78;23.26;100563.38;5003455;28;20380;-62
2021/05/21 10:12:17;;;;;;;3.50;0.70;;;;;;;22.84;23.51;100565.44;5003607;28;20120;-62
2021/05/21 10:14:48;;;;;;;2.97;0.63;;;;;;;22.75;23.93;100563.69;5003415;28;20108;-62
2021/05/21 10:17:20;;;;;;;0.80;0.57;;;;;;;22.53;23.91;100567.56;5003690;28;20312;-62
2021/05/21 10:19:55;;;;;;;3.70;1.13;;;;;;;22.78;24.74;100558.06;5004820;28;20054;-62
2021/05/21 10:22:28;;;;;;;4.88;1.42;;;;;;;22.87;25.33;100565.16;5004931;28;20064;-62
2021/05/21 10:25:04;;;;;;;2.97;0.85;;;;;;;22.74;24.11;100570.81;5005527;28;20463;-62
2021/05/21 10:27:32;;;;;;;8.07;1.05;;;;;;;22.81;25.00;100564.91;5004429;28;20050;-61
2021/05/21 10:30:08;;;;;;;1.10;0.70;;;;;;;22.76;25.29;100562.69;5004189;28;20046;-62
2021/05/21 10:32:37;;;;;;;1.00;0.80;;;;;;;22.92;26.12;100562.91;5004513;28;20045;-62
2021/05/21 10:35:24;;;;;;;4.65;1.00;;;;;;;23.01;26.24;100563.84;5005694;28;20046;-62
2021/05/21 10:38:25;;;;;;;2.88;0.70;;;;;;;22.76;24.51;100552.06;5006267;28;20056;-62
2021/05/21 10:41:17;;;;;;;2.85;0.88;;;;;;;22.81;24.86;100552.47;5008119;28;20060;-61
2021/05/21 10:43:54;;;;;;;2.35;0.90;;;;;;;22.80;24.99;100545.47;5005409;28;20131;-62
2021/05/21 10:46:42;;;;;;;4.00;0.65;;;;;;;22.93;24.65;100535.34;4991845;28;20042;-61
2021/05/21 10:49:20;;;;;;;5.45;0.77;;;;;;;23.03;25.11;100531.78;5007356;28;20495;-65
2021/05/21 10:51:50;;;;;;;5.40;0.90;;;;;;;23.10;26.23;100528.38;5007538;28;20065;-62
2021/05/21 10:54:32;;;;;;;5.55;0.98;;;;;;;23.08;25.60;100516.22;5007646;28;20045;-62
2021/05/21 10:57:19;;;;;;;1.80;0.82;;;;;;;23.04;25.13;100506.88;5007560;28;20536;-62
2021/05/21 10:59:53;;;;;;;4.05;1.35;;;;;;;22.99;24.59;100509.97;4990677;28;20050;-62
2021/05/21 11:02:22;;;;;;;1.80;0.90;;;;;;;23.02;25.25;100493.75;5006693;28;20042;-62
2021/05/21 11:04:51;;;;;;;3.40;0.93;;;;;;;23.05;25.38;100497.91;5005701;28;20042;-62
2021/05/21 11:07:43;;;;;;;1.85;0.70;;;;;;;23.06;26.00;100494.25;5006867;28;20129;-62
2021/05/21 11:10:27;;;;;;;4.35;0.80;;;;;;;23.05;25.95;100482.78;5004899;28;20046;-62
2021/05/21 11:12:58;;;;;;;;;;;;;;;23.09;25.63;100470.03;4989830;28;20568;-62
2021/05/21 11:15:36;;;;;;;4.53;1.10;;;;;;;23.22;26.37;100467.81;5007235;28;19921;-62
2021/05/21 11:18:14;;;;;;;4.05;0.95;;;;;;;23.15;26.30;100456.97;5008610;28;20046;-62
2021/05/21 11:21:06;;;;;;;6.03;1.20;;;;;;;23.06;25.73;100449.06;5006724;28;20041;-60
2021/05/21 11:23:45;;;;;;;8.75;1.83;;;;;;;23.07;25.98;100448.09;5009007;28;20050;-61
2021/05/21 11:26:17;;;;;;;4.05;1.20;;;;;;;23.14;26.63;100433.19;5013890;28;20401;-61
2021/05/21 11:28:47;;;;;;;3.15;0.90;;;;;;;23.11;26.78;100439.63;5010787;28;20080;-63
2021/05/21 11:31:22;;;;;;;6.00;1.15;;;;;;;23.11;26.63;100444.94;5013886;28;20046;-62
2021/05/21 11:33:51;;;;;;;2.35;0.82;;;;;;;23.17;26.33;100439.03;5014217;28;20097;-61